Terminal Aerodrome Forecast
Issued by NWS

Current Version | Previous Version | Text Only | Print | Product List | Glossary On
Versions: 1 2 3 4 5 6 7 8 9 10 11 12 13 14 15 16 17 18
000 FTUS41 KGYX 021122 TAFLEB TAF KLEB 021122Z 0212/0312 28006KT 5SM -SHSN BR OVC025 FM021400 30012G23KT P6SM BKN040 FM030100 32008KT P6SM SCT050 FM030500 VRB03KT P6SM SKC=

USA.gov is the U.S. government's official web portal to all federal, state and local government web resources and services.